sensor_id;sensor_type;location;lat;lon;timestamp;P1;durP1;ratioP1;P2;durP2;ratioP2
13708;SDS011;54933;51.908;7.730;2023-05-01T00:00:02;1.40;;;0.40;;
13708;SDS011;54933;51.908;7.730;2023-05-01T00:02:28;0.93;;;0.50;;
13708;SDS011;54933;51.908;7.730;2023-05-01T00:04:54;2.53;;;0.60;;
13708;SDS011;54933;51.908;7.730;2023-05-01T00:07:20;0.60;;;0.60;;
13708;SDS011;54933;51.908;7.730;2023-05-01T00:09:45;0.77;;;0.63;;
13708;SDS011;54933;51.908;7.730;2023-05-01T00:12:10;0.73;;;0.70;;
13708;SDS011;54933;51.908;7.730;2023-05-01T00:14:36;1.07;;;0.70;;
13708;SDS011;54933;51.908;7.730;2023-05-01T00:17:01;1.50;;;0.60;;
13708;SDS011;54933;51.908;7.730;2023-05-01T00:19:26;0.50;;;0.50;;
13708;SDS011;54933;51.908;7.730;2023-05-01T00:21:51;0.53;;;0.50;;
13708;SDS011;54933;51.908;7.730;2023-05-01T00:24:17;1.70;;;0.67;;
13708;SDS011;54933;51.908;7.730;2023-05-01T00:26:42;0.67;;;0.43;;
13708;SDS011;54933;51.908;7.730;2023-05-01T00:29:08;2.13;;;0.70;;
13708;SDS011;54933;51.908;7.730;2023-05-01T00:31:34;0.40;;;0.40;;
13708;SDS011;54933;51.908;7.730;2023-05-01T00:34:00;0.50;;;0.50;;
13708;SDS011;54933;51.908;7.730;2023-05-01T00:36:25;0.50;;;0.50;;
13708;SDS011;54933;51.908;7.730;2023-05-01T00:38:51;0.47;;;0.47;;
13708;SDS011;54933;51.908;7.730;2023-05-01T00:41:16;0.60;;;0.40;;
13708;SDS011;54933;51.908;7.730;2023-05-01T00:43:41;1.17;;;0.60;;
13708;SDS011;54933;51.908;7.730;2023-05-01T00:46:07;1.23;;;0.60;;
13708;SDS011;54933;51.908;7.730;2023-05-01T00:48:32;0.67;;;0.67;;
13708;SDS011;54933;51.908;7.730;2023-05-01T00:50:58;0.47;;;0.47;;
13708;SDS011;54933;51.908;7.730;2023-05-01T00:53:24;2.37;;;0.60;;
13708;SDS011;54933;51.908;7.730;2023-05-01T00:55:50;2.23;;;0.57;;
13708;SDS011;54933;51.908;7.730;2023-05-01T00:58:16;1.07;;;0.60;;
13708;SDS011;54933;51.908;7.730;2023-05-01T01:00:42;0.63;;;0.63;;
13708;SDS011;54933;51.908;7.730;2023-05-01T01:03:08;0.70;;;0.70;;
13708;SDS011;54933;51.908;7.730;2023-05-01T01:05:34;0.83;;;0.50;;
13708;SDS011;54933;51.908;7.730;2023-05-01T01:08:09;1.60;;;0.80;;
13708;SDS011;54933;51.908;7.730;2023-05-01T01:13:41;0.80;;;0.60;;
13708;SDS011;54933;51.908;7.730;2023-05-01T01:16:12;1.03;;;0.80;;
13708;SDS011;54933;51.908;7.730;2023-05-01T01:18:47;0.57;;;0.50;;
13708;SDS011;54933;51.908;7.730;2023-05-01T01:21:22;0.50;;;0.50;;
13708;SDS011;54933;51.908;7.730;2023-05-01T01:29:37;1.07;;;0.70;;
13708;SDS011;54933;51.908;7.730;2023-05-01T01:32:27;0.70;;;0.67;;
13708;SDS011;54933;51.908;7.730;2023-05-01T01:35:09;1.50;;;0.70;;
13708;SDS011;54933;51.908;7.730;2023-05-01T01:37:47;0.60;;;0.60;;
13708;SDS011;54933;51.908;7.730;2023-05-01T01:40:20;0.73;;;0.70;;
13708;SDS011;54933;51.908;7.730;2023-05-01T01:42:54;1.90;;;0.50;;
13708;SDS011;54933;51.908;7.730;2023-05-01T01:45:29;0.50;;;0.50;;
13708;SDS011;54933;51.908;7.730;2023-05-01T01:48:00;0.50;;;0.50;;
13708;SDS011;54933;51.908;7.730;2023-05-01T01:50:27;0.50;;;0.50;;
13708;SDS011;54933;51.908;7.730;2023-05-01T01:52:52;0.50;;;0.50;;
13708;SDS011;54933;51.908;7.730;2023-05-01T01:55:20;0.53;;;0.53;;
13708;SDS011;54933;51.908;7.730;2023-05-01T01:57:48;0.47;;;0.47;;
13708;SDS011;54933;51.908;7.730;2023-05-01T02:00:15;0.67;;;0.67;;
13708;SDS011;54933;51.908;7.730;2023-05-01T02:02:41;1.33;;;0.70;;
13708;SDS011;54933;51.908;7.730;2023-05-01T02:05:10;0.70;;;0.70;;
13708;SDS011;54933;51.908;7.730;2023-05-01T02:07:38;1.57;;;0.60;;
13708;SDS011;54933;51.908;7.730;2023-05-01T02:10:05;0.70;;;0.70;;
13708;SDS011;54933;51.908;7.730;2023-05-01T02:12:36;0.50;;;0.50;;
13708;SDS011;54933;51.908;7.730;2023-05-01T02:15:02;0.50;;;0.50;;
13708;SDS011;54933;51.908;7.730;2023-05-01T02:17:31;0.70;;;0.70;;
13708;SDS011;54933;51.908;7.730;2023-05-01T02:19:59;0.60;;;0.60;;
13708;SDS011;54933;51.908;7.730;2023-05-01T02:22:25;1.23;;;0.70;;
13708;SDS011;54933;51.908;7.730;2023-05-01T02:24:52;0.97;;;0.70;;
13708;SDS011;54933;51.908;7.730;2023-05-01T02:27:21;0.50;;;0.50;;
13708;SDS011;54933;51.908;7.730;2023-05-01T02:29:48;0.43;;;0.43;;
13708;SDS011;54933;51.908;7.730;2023-05-01T02:32:15;0.50;;;0.50;;
13708;SDS011;54933;51.908;7.730;2023-05-01T02:34:40;0.68;;;0.50;;
13708;SDS011;54933;51.908;7.730;2023-05-01T02:37:06;1.37;;;0.77;;
13708;SDS011;54933;51.908;7.730;2023-05-01T02:39:34;1.50;;;0.90;;
13708;SDS011;54933;51.908;7.730;2023-05-01T02:42:00;0.80;;;0.80;;
13708;SDS011;54933;51.908;7.730;2023-05-01T02:44:35;0.50;;;0.50;;
13708;SDS011;54933;51.908;7.730;2023-05-01T02:47:05;0.67;;;0.67;;
13708;SDS011;54933;51.908;7.730;2023-05-01T02:49:33;0.50;;;0.50;;
13708;SDS011;54933;51.908;7.730;2023-05-01T02:51:59;0.47;;;0.47;;
13708;SDS011;54933;51.908;7.730;2023-05-01T02:54:25;0.50;;;0.50;;
13708;SDS011;54933;51.908;7.730;2023-05-01T02:56:51;0.40;;;0.40;;
13708;SDS011;54933;51.908;7.730;2023-05-01T02:59:16;0.53;;;0.53;;
13708;SDS011;54933;51.908;7.730;2023-05-01T03:01:41;0.60;;;0.60;;
13708;SDS011;54933;51.908;7.730;2023-05-01T03:04:06;0.80;;;0.70;;
13708;SDS011;54933;51.908;7.730;2023-05-01T03:06:32;0.63;;;0.63;;
13708;SDS011;54933;51.908;7.730;2023-05-01T03:08:57;0.70;;;0.70;;
13708;SDS011;54933;51.908;7.730;2023-05-01T03:11:22;0.70;;;0.70;;
13708;SDS011;54933;51.908;7.730;2023-05-01T03:13:48;0.77;;;0.77;;
13708;SDS011;54933;51.908;7.730;2023-05-01T03:16:13;0.43;;;0.40;;
13708;SDS011;54933;51.908;7.730;2023-05-01T03:18:38;0.70;;;0.63;;
13708;SDS011;54933;51.908;7.730;2023-05-01T03:21:04;0.50;;;0.50;;
13708;SDS011;54933;51.908;7.730;2023-05-01T03:23:29;0.93;;;0.60;;
13708;SDS011;54933;51.908;7.730;2023-05-01T03:25:54;0.70;;;0.60;;
13708;SDS011;54933;51.908;7.730;2023-05-01T03:28:21;0.53;;;0.53;;
13708;SDS011;54933;51.908;7.730;2023-05-01T03:30:48;1.43;;;0.67;;
13708;SDS011;54933;51.908;7.730;2023-05-01T03:33:14;0.57;;;0.57;;
13708;SDS011;54933;51.908;7.730;2023-05-01T03:35:39;0.73;;;0.70;;
13708;SDS011;54933;51.908;7.730;2023-05-01T03:38:04;0.93;;;0.60;;
13708;SDS011;54933;51.908;7.730;2023-05-01T03:40:30;0.50;;;0.50;;
13708;SDS011;54933;51.908;7.730;2023-05-01T03:42:55;0.60;;;0.60;;
13708;SDS011;54933;51.908;7.730;2023-05-01T03:45:20;0.70;;;0.70;;
13708;SDS011;54933;51.908;7.730;2023-05-01T03:47:45;0.63;;;0.63;;
13708;SDS011;54933;51.908;7.730;2023-05-01T03:50:11;0.60;;;0.60;;
13708;SDS011;54933;51.908;7.730;2023-05-01T03:52:36;0.60;;;0.60;;
13708;SDS011;54933;51.908;7.730;2023-05-01T03:55:02;0.60;;;0.60;;
13708;SDS011;54933;51.908;7.730;2023-05-01T03:57:27;0.40;;;0.40;;
13708;SDS011;54933;51.908;7.730;2023-05-01T03:59:52;0.60;;;0.60;;
13708;SDS011;54933;51.908;7.730;2023-05-01T04:02:18;0.57;;;0.57;;
13708;SDS011;54933;51.908;7.730;2023-05-01T04:04:44;0.40;;;0.40;;
13708;SDS011;54933;51.908;7.730;2023-05-01T04:07:09;0.60;;;0.60;;
13708;SDS011;54933;51.908;7.730;2023-05-01T04:09:35;0.40;;;0.40;;
13708;SDS011;54933;51.908;7.730;2023-05-01T04:12:01;0.70;;;0.70;;
13708;SDS011;54933;51.908;7.730;2023-05-01T04:14:26;0.60;;;0.60;;
13708;SDS011;54933;51.908;7.730;2023-05-01T04:16:52;0.90;;;0.90;;
13708;SDS011;54933;51.908;7.730;2023-05-01T04:19:17;0.50;;;0.50;;
13708;SDS011;54933;51.908;7.730;2023-05-01T04:21:43;0.80;;;0.80;;
13708;SDS011;54933;51.908;7.730;2023-05-01T04:24:08;1.20;;;0.60;;
13708;SDS011;54933;51.908;7.730;2023-05-01T04:26:33;0.83;;;0.70;;
13708;SDS011;54933;51.908;7.730;2023-05-01T04:28:58;0.60;;;0.60;;
13708;SDS011;54933;51.908;7.730;2023-05-01T04:31:24;0.50;;;0.50;;
13708;SDS011;54933;51.908;7.730;2023-05-01T04:33:50;0.73;;;0.73;;
13708;SDS011;54933;51.908;7.730;2023-05-01T04:36:15;0.40;;;0.40;;
13708;SDS011;54933;51.908;7.730;2023-05-01T04:38:41;0.67;;;0.67;;
13708;SDS011;54933;51.908;7.730;2023-05-01T04:41:06;0.60;;;0.60;;
13708;SDS011;54933;51.908;7.730;2023-05-01T04:43:31;0.73;;;0.73;;
13708;SDS011;54933;51.908;7.730;2023-05-01T04:45:56;0.93;;;0.70;;
13708;SDS011;54933;51.908;7.730;2023-05-01T04:48:22;0.60;;;0.60;;
13708;SDS011;54933;51.908;7.730;2023-05-01T04:50:47;3.63;;;1.00;;
13708;SDS011;54933;51.908;7.730;2023-05-01T04:53:12;0.67;;;0.60;;
13708;SDS011;54933;51.908;7.730;2023-05-01T04:55:38;0.60;;;0.60;;
13708;SDS011;54933;51.908;7.730;2023-05-01T04:58:03;0.63;;;0.63;;
13708;SDS011;54933;51.908;7.730;2023-05-01T05:00:29;0.60;;;0.60;;
13708;SDS011;54933;51.908;7.730;2023-05-01T05:02:54;0.63;;;0.60;;
13708;SDS011;54933;51.908;7.730;2023-05-01T05:05:20;0.60;;;0.60;;
13708;SDS011;54933;51.908;7.730;2023-05-01T05:07:45;0.53;;;0.53;;
13708;SDS011;54933;51.908;7.730;2023-05-01T05:10:11;0.60;;;0.60;;
13708;SDS011;54933;51.908;7.730;2023-05-01T05:12:36;0.83;;;0.70;;
13708;SDS011;54933;51.908;7.730;2023-05-01T05:15:01;0.67;;;0.67;;
13708;SDS011;54933;51.908;7.730;2023-05-01T05:17:27;0.70;;;0.70;;
13708;SDS011;54933;51.908;7.730;2023-05-01T05:19:52;0.80;;;0.80;;
13708;SDS011;54933;51.908;7.730;2023-05-01T05:22:17;0.50;;;0.50;;
13708;SDS011;54933;51.908;7.730;2023-05-01T05:24:43;0.60;;;0.60;;
13708;SDS011;54933;51.908;7.730;2023-05-01T05:27:09;0.50;;;0.50;;
13708;SDS011;54933;51.908;7.730;2023-05-01T05:29:34;0.80;;;0.60;;
13708;SDS011;54933;51.908;7.730;2023-05-01T05:31:59;0.70;;;0.60;;
13708;SDS011;54933;51.908;7.730;2023-05-01T05:34:25;0.67;;;0.67;;
13708;SDS011;54933;51.908;7.730;2023-05-01T05:36:50;0.70;;;0.67;;
13708;SDS011;54933;51.908;7.730;2023-05-01T05:39:15;0.60;;;0.60;;
13708;SDS011;54933;51.908;7.730;2023-05-01T05:41:41;0.50;;;0.50;;
13708;SDS011;54933;51.908;7.730;2023-05-01T05:44:06;0.63;;;0.60;;
13708;SDS011;54933;51.908;7.730;2023-05-01T05:46:32;0.60;;;0.60;;
13708;SDS011;54933;51.908;7.730;2023-05-01T05:48:57;0.50;;;0.50;;
13708;SDS011;54933;51.908;7.730;2023-05-01T05:51:22;0.60;;;0.60;;
13708;SDS011;54933;51.908;7.730;2023-05-01T05:53:48;0.77;;;0.77;;
13708;SDS011;54933;51.908;7.730;2023-05-01T05:56:13;0.60;;;0.60;;
13708;SDS011;54933;51.908;7.730;2023-05-01T05:58:38;0.50;;;0.50;;
13708;SDS011;54933;51.908;7.730;2023-05-01T06:01:03;0.97;;;0.90;;
13708;SDS011;54933;51.908;7.730;2023-05-01T06:03:30;0.57;;;0.57;;
13708;SDS011;54933;51.908;7.730;2023-05-01T06:05:56;0.73;;;0.73;;
13708;SDS011;54933;51.908;7.730;2023-05-01T06:08:21;0.70;;;0.70;;
13708;SDS011;54933;51.908;7.730;2023-05-01T06:10:47;0.67;;;0.67;;
13708;SDS011;54933;51.908;7.730;2023-05-01T06:13:12;0.60;;;0.60;;
13708;SDS011;54933;51.908;7.730;2023-05-01T06:15:38;0.77;;;0.53;;
13708;SDS011;54933;51.908;7.730;2023-05-01T06:18:04;0.60;;;0.60;;
13708;SDS011;54933;51.908;7.730;2023-05-01T06:20:29;0.63;;;0.63;;
13708;SDS011;54933;51.908;7.730;2023-05-01T06:22:55;0.50;;;0.50;;
13708;SDS011;54933;51.908;7.730;2023-05-01T06:25:21;0.60;;;0.60;;
13708;SDS011;54933;51.908;7.730;2023-05-01T06:27:47;1.23;;;0.60;;
13708;SDS011;54933;51.908;7.730;2023-05-01T06:30:13;0.53;;;0.53;;
13708;SDS011;54933;51.908;7.730;2023-05-01T06:32:38;0.60;;;0.60;;
13708;SDS011;54933;51.908;7.730;2023-05-01T06:35:06;0.60;;;0.60;;
13708;SDS011;54933;51.908;7.730;2023-05-01T06:37:32;0.70;;;0.70;;
13708;SDS011;54933;51.908;7.730;2023-05-01T06:39:57;0.70;;;0.70;;
13708;SDS011;54933;51.908;7.730;2023-05-01T06:42:22;0.60;;;0.60;;
13708;SDS011;54933;51.908;7.730;2023-05-01T06:44:47;1.13;;;0.70;;
13708;SDS011;54933;51.908;7.730;2023-05-01T06:47:13;0.60;;;0.60;;
13708;SDS011;54933;51.908;7.730;2023-05-01T06:49:38;0.50;;;0.50;;
13708;SDS011;54933;51.908;7.730;2023-05-01T06:52:03;0.60;;;0.60;;
13708;SDS011;54933;51.908;7.730;2023-05-01T06:54:29;1.10;;;0.80;;
13708;SDS011;54933;51.908;7.730;2023-05-01T06:56:54;0.60;;;0.60;;
13708;SDS011;54933;51.908;7.730;2023-05-01T06:59:19;0.60;;;0.60;;
13708;SDS011;54933;51.908;7.730;2023-05-01T07:01:45;0.97;;;0.60;;
13708;SDS011;54933;51.908;7.730;2023-05-01T07:04:10;0.80;;;0.70;;
13708;SDS011;54933;51.908;7.730;2023-05-01T07:06:35;4.80;;;1.10;;
13708;SDS011;54933;51.908;7.730;2023-05-01T07:09:01;17.47;;;1.23;;
13708;SDS011;54933;51.908;7.730;2023-05-01T07:11:27;11.33;;;1.20;;
13708;SDS011;54933;51.908;7.730;2023-05-01T07:13:53;10.33;;;1.70;;
13708;SDS011;54933;51.908;7.730;2023-05-01T07:16:18;7.43;;;1.77;;
13708;SDS011;54933;51.908;7.730;2023-05-01T07:18:44;4.83;;;1.33;;
13708;SDS011;54933;51.908;7.730;2023-05-01T07:21:10;2.67;;;1.03;;
13708;SDS011;54933;51.908;7.730;2023-05-01T07:23:36;5.50;;;1.30;;
13708;SDS011;54933;51.908;7.730;2023-05-01T07:26:01;5.40;;;1.17;;
13708;SDS011;54933;51.908;7.730;2023-05-01T07:28:27;10.40;;;1.40;;
13708;SDS011;54933;51.908;7.730;2023-05-01T07:30:52;4.00;;;1.20;;
13708;SDS011;54933;51.908;7.730;2023-05-01T07:33:17;4.37;;;0.80;;
13708;SDS011;54933;51.908;7.730;2023-05-01T07:35:42;1.07;;;1.00;;
13708;SDS011;54933;51.908;7.730;2023-05-01T07:38:08;1.53;;;0.93;;
13708;SDS011;54933;51.908;7.730;2023-05-01T07:40:33;3.37;;;0.90;;
13708;SDS011;54933;51.908;7.730;2023-05-01T07:42:59;4.27;;;0.90;;
13708;SDS011;54933;51.908;7.730;2023-05-01T07:45:25;6.90;;;1.53;;
13708;SDS011;54933;51.908;7.730;2023-05-01T07:47:50;3.00;;;0.90;;
13708;SDS011;54933;51.908;7.730;2023-05-01T07:50:16;5.77;;;2.60;;
13708;SDS011;54933;51.908;7.730;2023-05-01T07:52:41;5.13;;;1.30;;
13708;SDS011;54933;51.908;7.730;2023-05-01T07:55:07;4.43;;;1.13;;
13708;SDS011;54933;51.908;7.730;2023-05-01T07:57:33;7.53;;;0.90;;
13708;SDS011;54933;51.908;7.730;2023-05-01T07:59:59;1.23;;;1.10;;
13708;SDS011;54933;51.908;7.730;2023-05-01T08:02:25;4.10;;;1.10;;
13708;SDS011;54933;51.908;7.730;2023-05-01T08:04:50;1.07;;;0.87;;
13708;SDS011;54933;51.908;7.730;2023-05-01T08:07:15;2.97;;;1.40;;
13708;SDS011;54933;51.908;7.730;2023-05-01T08:09:41;1.13;;;0.97;;
13708;SDS011;54933;51.908;7.730;2023-05-01T08:12:06;1.57;;;0.90;;
13708;SDS011;54933;51.908;7.730;2023-05-01T08:14:32;2.83;;;0.83;;
13708;SDS011;54933;51.908;7.730;2023-05-01T08:16:57;1.10;;;1.00;;
13708;SDS011;54933;51.908;7.730;2023-05-01T08:19:22;0.80;;;0.70;;
13708;SDS011;54933;51.908;7.730;2023-05-01T08:21:48;0.60;;;0.60;;
13708;SDS011;54933;51.908;7.730;2023-05-01T08:24:14;2.53;;;1.03;;
13708;SDS011;54933;51.908;7.730;2023-05-01T08:26:39;2.37;;;0.80;;
13708;SDS011;54933;51.908;7.730;2023-05-01T08:29:04;2.07;;;1.43;;
13708;SDS011;54933;51.908;7.730;2023-05-01T08:31:30;0.87;;;0.73;;
13708;SDS011;54933;51.908;7.730;2023-05-01T08:33:55;0.83;;;0.80;;
13708;SDS011;54933;51.908;7.730;2023-05-01T08:36:20;1.67;;;0.83;;
13708;SDS011;54933;51.908;7.730;2023-05-01T08:38:45;1.37;;;0.97;;
13708;SDS011;54933;51.908;7.730;2023-05-01T08:41:14;3.27;;;0.90;;
13708;SDS011;54933;51.908;7.730;2023-05-01T08:43:44;123.97;;;7.40;;
13708;SDS011;54933;51.908;7.730;2023-05-01T08:46:10;79.40;;;4.73;;
13708;SDS011;54933;51.908;7.730;2023-05-01T08:48:39;55.13;;;4.40;;
13708;SDS011;54933;51.908;7.730;2023-05-01T08:51:07;44.00;;;3.80;;
13708;SDS011;54933;51.908;7.730;2023-05-01T08:53:33;28.33;;;3.43;;
13708;SDS011;54933;51.908;7.730;2023-05-01T08:55:59;34.43;;;3.07;;
13708;SDS011;54933;51.908;7.730;2023-05-01T08:58:29;24.67;;;3.37;;
13708;SDS011;54933;51.908;7.730;2023-05-01T09:00:58;28.07;;;2.30;;
13708;SDS011;54933;51.908;7.730;2023-05-01T09:03:25;22.97;;;2.27;;
13708;SDS011;54933;51.908;7.730;2023-05-01T09:05:52;26.43;;;2.07;;
13708;SDS011;54933;51.908;7.730;2023-05-01T09:08:17;19.80;;;2.03;;
13708;SDS011;54933;51.908;7.730;2023-05-01T09:10:44;27.47;;;2.73;;
13708;SDS011;54933;51.908;7.730;2023-05-01T09:13:11;64.10;;;7.33;;
13708;SDS011;54933;51.908;7.730;2023-05-01T09:15:36;155.43;;;13.33;;
13708;SDS011;54933;51.908;7.730;2023-05-01T09:18:02;118.43;;;9.77;;
13708;SDS011;54933;51.908;7.730;2023-05-01T09:20:27;93.43;;;8.73;;
13708;SDS011;54933;51.908;7.730;2023-05-01T09:22:54;88.30;;;7.83;;
13708;SDS011;54933;51.908;7.730;2023-05-01T09:25:21;81.70;;;7.43;;
13708;SDS011;54933;51.908;7.730;2023-05-01T09:27:46;78.80;;;7.17;;
13708;SDS011;54933;51.908;7.730;2023-05-01T09:30:31;72.23;;;8.13;;
13708;SDS011;54933;51.908;7.730;2023-05-01T09:33:04;79.83;;;6.93;;
13708;SDS011;54933;51.908;7.730;2023-05-01T09:35:29;61.37;;;5.97;;
13708;SDS011;54933;51.908;7.730;2023-05-01T09:37:56;71.40;;;5.03;;
13708;SDS011;54933;51.908;7.730;2023-05-01T09:40:25;51.17;;;5.53;;
13708;SDS011;54933;51.908;7.730;2023-05-01T09:42:52;55.80;;;4.57;;
13708;SDS011;54933;51.908;7.730;2023-05-01T09:45:19;52.67;;;5.67;;
13708;SDS011;54933;51.908;7.730;2023-05-01T09:47:45;57.17;;;4.67;;
13708;SDS011;54933;51.908;7.730;2023-05-01T09:50:26;44.20;;;5.10;;
13708;SDS011;54933;51.908;7.730;2023-05-01T09:52:56;35.10;;;3.80;;
13708;SDS011;54933;51.908;7.730;2023-05-01T09:55:22;39.37;;;4.77;;
13708;SDS011;54933;51.908;7.730;2023-05-01T09:57:57;39.30;;;3.60;;
13708;SDS011;54933;51.908;7.730;2023-05-01T10:00:25;34.97;;;3.77;;
13708;SDS011;54933;51.908;7.730;2023-05-01T10:02:51;23.37;;;3.13;;
13708;SDS011;54933;51.908;7.730;2023-05-01T10:05:16;26.87;;;4.03;;
13708;SDS011;54933;51.908;7.730;2023-05-01T10:07:56;31.00;;;3.33;;
13708;SDS011;54933;51.908;7.730;2023-05-01T10:10:26;27.37;;;3.67;;
13708;SDS011;54933;51.908;7.730;2023-05-01T10:12:51;20.67;;;3.13;;
13708;SDS011;54933;51.908;7.730;2023-05-01T10:15:17;11.20;;;2.53;;
13708;SDS011;54933;51.908;7.730;2023-05-01T10:17:44;23.37;;;4.80;;
13708;SDS011;54933;51.908;7.730;2023-05-01T10:20:10;24.80;;;3.87;;
13708;SDS011;54933;51.908;7.730;2023-05-01T10:22:36;23.20;;;2.87;;
13708;SDS011;54933;51.908;7.730;2023-05-01T10:25:09;15.10;;;2.93;;
13708;SDS011;54933;51.908;7.730;2023-05-01T10:27:38;20.47;;;2.87;;
13708;SDS011;54933;51.908;7.730;2023-05-01T10:30:08;13.00;;;2.47;;
13708;SDS011;54933;51.908;7.730;2023-05-01T10:32:34;19.67;;;3.07;;
13708;SDS011;54933;51.908;7.730;2023-05-01T10:35:03;24.97;;;3.13;;
13708;SDS011;54933;51.908;7.730;2023-05-01T10:37:35;36.40;;;3.73;;
13708;SDS011;54933;51.908;7.730;2023-05-01T10:45:53;24.67;;;3.40;;
13708;SDS011;54933;51.908;7.730;2023-05-01T10:51:11;33.37;;;3.67;;
13708;SDS011;54933;51.908;7.730;2023-05-01T10:53:41;20.30;;;3.63;;
13708;SDS011;54933;51.908;7.730;2023-05-01T11:03:58;18.30;;;2.37;;
13708;SDS011;54933;51.908;7.730;2023-05-01T11:06:27;28.03;;;2.63;;
13708;SDS011;54933;51.908;7.730;2023-05-01T11:08:53;14.63;;;1.73;;
13708;SDS011;54933;51.908;7.730;2023-05-01T11:19:03;10.47;;;1.83;;
13708;SDS011;54933;51.908;7.730;2023-05-01T11:21:29;6.43;;;1.30;;
13708;SDS011;54933;51.908;7.730;2023-05-01T11:23:58;10.60;;;1.57;;
13708;SDS011;54933;51.908;7.730;2023-05-01T11:26:23;5.83;;;1.10;;
13708;SDS011;54933;51.908;7.730;2023-05-01T11:28:50;3.90;;;1.10;;
13708;SDS011;54933;51.908;7.730;2023-05-01T11:31:18;9.33;;;1.30;;
13708;SDS011;54933;51.908;7.730;2023-05-01T11:33:44;3.77;;;1.10;;
13708;SDS011;54933;51.908;7.730;2023-05-01T11:36:10;4.00;;;1.10;;
13708;SDS011;54933;51.908;7.730;2023-05-01T11:38:35;4.67;;;1.00;;
13708;SDS011;54933;51.908;7.730;2023-05-01T11:41:01;4.17;;;1.20;;
13708;SDS011;54933;51.908;7.730;2023-05-01T11:43:28;5.83;;;1.17;;
13708;SDS011;54933;51.908;7.730;2023-05-01T11:45:53;3.27;;;1.27;;
13708;SDS011;54933;51.908;7.730;2023-05-01T11:48:20;4.60;;;0.97;;
13708;SDS011;54933;51.908;7.730;2023-05-01T11:50:46;9.17;;;1.20;;
13708;SDS011;54933;51.908;7.730;2023-05-01T11:53:12;5.27;;;1.00;;
13708;SDS011;54933;51.908;7.730;2023-05-01T11:55:41;2.10;;;1.00;;
13708;SDS011;54933;51.908;7.730;2023-05-01T11:58:06;3.20;;;1.10;;
13708;SDS011;54933;51.908;7.730;2023-05-01T12:00:34;1.03;;;0.80;;
13708;SDS011;54933;51.908;7.730;2023-05-01T12:03:07;3.43;;;1.10;;
13708;SDS011;54933;51.908;7.730;2023-05-01T12:05:37;33.67;;;3.90;;
13708;SDS011;54933;51.908;7.730;2023-05-01T12:08:17;16.80;;;1.87;;
13708;SDS011;54933;51.908;7.730;2023-05-01T12:10:45;9.97;;;1.40;;
13708;SDS011;54933;51.908;7.730;2023-05-01T12:13:13;7.23;;;1.20;;
13708;SDS011;54933;51.908;7.730;2023-05-01T12:15:40;7.40;;;1.87;;
13708;SDS011;54933;51.908;7.730;2023-05-01T12:18:07;17.73;;;3.23;;
13708;SDS011;54933;51.908;7.730;2023-05-01T12:20:40;14.77;;;3.07;;
13708;SDS011;54933;51.908;7.730;2023-05-01T12:23:06;13.80;;;2.77;;
13708;SDS011;54933;51.908;7.730;2023-05-01T12:25:34;16.97;;;3.17;;
13708;SDS011;54933;51.908;7.730;2023-05-01T12:28:01;16.23;;;2.70;;
13708;SDS011;54933;51.908;7.730;2023-05-01T12:30:28;17.53;;;2.97;;
13708;SDS011;54933;51.908;7.730;2023-05-01T12:32:56;15.40;;;2.70;;
13708;SDS011;54933;51.908;7.730;2023-05-01T12:35:22;16.07;;;3.30;;
13708;SDS011;54933;51.908;7.730;2023-05-01T12:58:35;75.30;;;5.33;;
13708;SDS011;54933;51.908;7.730;2023-05-01T13:01:01;47.13;;;4.47;;
13708;SDS011;54933;51.908;7.730;2023-05-01T13:03:27;41.00;;;3.77;;
13708;SDS011;54933;51.908;7.730;2023-05-01T13:06:11;36.60;;;3.33;;
13708;SDS011;54933;51.908;7.730;2023-05-01T13:08:37;24.77;;;2.87;;
13708;SDS011;54933;51.908;7.730;2023-05-01T13:11:10;21.80;;;3.40;;
13708;SDS011;54933;51.908;7.730;2023-05-01T13:13:45;25.23;;;2.83;;
13708;SDS011;54933;51.908;7.730;2023-05-01T13:16:14;27.20;;;3.40;;
13708;SDS011;54933;51.908;7.730;2023-05-01T13:18:41;14.90;;;3.37;;
13708;SDS011;54933;51.908;7.730;2023-05-01T13:21:07;17.97;;;2.50;;
13708;SDS011;54933;51.908;7.730;2023-05-01T13:23:35;25.23;;;2.70;;
13708;SDS011;54933;51.908;7.730;2023-05-01T13:26:02;19.13;;;2.67;;
13708;SDS011;54933;51.908;7.730;2023-05-01T13:28:28;21.17;;;2.10;;
13708;SDS011;54933;51.908;7.730;2023-05-01T13:30:55;11.63;;;2.57;;
13708;SDS011;54933;51.908;7.730;2023-05-01T13:33:20;16.00;;;2.20;;
13708;SDS011;54933;51.908;7.730;2023-05-01T13:35:46;14.57;;;2.27;;
13708;SDS011;54933;51.908;7.730;2023-05-01T13:38:11;20.37;;;3.20;;
13708;SDS011;54933;51.908;7.730;2023-05-01T13:40:37;22.73;;;2.70;;
13708;SDS011;54933;51.908;7.730;2023-05-01T13:43:04;35.40;;;3.13;;
13708;SDS011;54933;51.908;7.730;2023-05-01T18:43:49;5.20;;;1.40;;
13708;SDS011;54933;51.908;7.730;2023-05-01T18:46:14;2.97;;;0.90;;
13708;SDS011;54933;51.908;7.730;2023-05-01T18:48:40;5.77;;;1.00;;
13708;SDS011;54933;51.908;7.730;2023-05-01T18:51:05;5.53;;;1.63;;
13708;SDS011;54933;51.908;7.730;2023-05-01T18:53:30;5.00;;;0.90;;
13708;SDS011;54933;51.908;7.730;2023-05-01T18:55:55;6.13;;;0.80;;
13708;SDS011;54933;51.908;7.730;2023-05-01T18:58:21;3.20;;;1.10;;
13708;SDS011;54933;51.908;7.730;2023-05-01T19:00:46;7.03;;;1.23;;
13708;SDS011;54933;51.908;7.730;2023-05-01T19:03:11;2.07;;;0.90;;
13708;SDS011;54933;51.908;7.730;2023-05-01T19:05:37;1.43;;;0.90;;
13708;SDS011;54933;51.908;7.730;2023-05-01T19:08:02;9.83;;;1.27;;
13708;SDS011;54933;51.908;7.730;2023-05-01T19:10:29;3.57;;;1.20;;
13708;SDS011;54933;51.908;7.730;2023-05-01T19:12:54;1.07;;;0.97;;
13708;SDS011;54933;51.908;7.730;2023-05-01T19:15:20;6.33;;;0.90;;
13708;SDS011;54933;51.908;7.730;2023-05-01T19:17:45;4.73;;;0.87;;
13708;SDS011;54933;51.908;7.730;2023-05-01T19:20:10;3.63;;;0.73;;
13708;SDS011;54933;51.908;7.730;2023-05-01T19:22:36;3.77;;;1.00;;
13708;SDS011;54933;51.908;7.730;2023-05-01T19:25:01;2.73;;;0.90;;
13708;SDS011;54933;51.908;7.730;2023-05-01T19:27:26;11.00;;;1.97;;
13708;SDS011;54933;51.908;7.730;2023-05-01T19:29:52;3.73;;;1.07;;
13708;SDS011;54933;51.908;7.730;2023-05-01T19:32:18;3.13;;;0.90;;
13708;SDS011;54933;51.908;7.730;2023-05-01T19:34:44;1.00;;;0.90;;
13708;SDS011;54933;51.908;7.730;2023-05-01T19:37:09;5.10;;;0.80;;
13708;SDS011;54933;51.908;7.730;2023-05-01T19:39:34;2.63;;;0.87;;
13708;SDS011;54933;51.908;7.730;2023-05-01T19:42:00;2.13;;;0.80;;
13708;SDS011;54933;51.908;7.730;2023-05-01T19:44:26;3.33;;;0.70;;
13708;SDS011;54933;51.908;7.730;2023-05-01T19:46:51;7.13;;;1.40;;
13708;SDS011;54933;51.908;7.730;2023-05-01T19:49:16;4.37;;;1.00;;
13708;SDS011;54933;51.908;7.730;2023-05-01T19:51:42;5.23;;;1.00;;
13708;SDS011;54933;51.908;7.730;2023-05-01T19:54:08;4.17;;;1.00;;
13708;SDS011;54933;51.908;7.730;2023-05-01T19:56:33;5.53;;;1.10;;
13708;SDS011;54933;51.908;7.730;2023-05-01T19:58:59;2.83;;;0.90;;
13708;SDS011;54933;51.908;7.730;2023-05-01T20:01:24;7.40;;;1.10;;
13708;SDS011;54933;51.908;7.730;2023-05-01T20:03:49;10.87;;;1.40;;
13708;SDS011;54933;51.908;7.730;2023-05-01T20:06:14;15.73;;;2.00;;
13708;SDS011;54933;51.908;7.730;2023-05-01T20:08:40;22.23;;;3.20;;
13708;SDS011;54933;51.908;7.730;2023-05-01T20:11:06;16.60;;;2.17;;
13708;SDS011;54933;51.908;7.730;2023-05-01T20:13:31;28.27;;;2.57;;
13708;SDS011;54933;51.908;7.730;2023-05-01T20:15:57;19.60;;;2.23;;
13708;SDS011;54933;51.908;7.730;2023-05-01T20:18:22;20.90;;;2.43;;
13708;SDS011;54933;51.908;7.730;2023-05-01T20:20:48;16.93;;;2.00;;
13708;SDS011;54933;51.908;7.730;2023-05-01T20:23:14;13.97;;;1.40;;
13708;SDS011;54933;51.908;7.730;2023-05-01T20:25:40;17.57;;;1.60;;
13708;SDS011;54933;51.908;7.730;2023-05-01T20:28:06;10.27;;;1.40;;
13708;SDS011;54933;51.908;7.730;2023-05-01T20:30:37;34.97;;;3.13;;